sensor_id;sensor_type;location;lat;lon;timestamp;P1;durP1;ratioP1;P2;durP2;ratioP2
73678;SDS011;61978;52.742;16.962;2022-11-20T00:01:09;15.93;;;13.58;;
73678;SDS011;61978;52.742;16.962;2022-11-20T00:03:41;18.17;;;13.90;;
73678;SDS011;61978;52.742;16.962;2022-11-20T00:06:09;18.15;;;15.00;;
73678;SDS011;61978;52.742;16.962;2022-11-20T00:08:39;19.12;;;15.32;;
73678;SDS011;61978;52.742;16.962;2022-11-20T00:11:18;20.45;;;15.55;;
73678;SDS011;61978;52.742;16.962;2022-11-20T00:13:43;20.27;;;15.78;;
73678;SDS011;61978;52.742;16.962;2022-11-20T00:16:12;20.32;;;15.78;;
73678;SDS011;61978;52.742;16.962;2022-11-20T00:18:42;22.52;;;16.65;;
73678;SDS011;61978;52.742;16.962;2022-11-20T00:21:29;21.57;;;16.57;;
73678;SDS011;61978;52.742;16.962;2022-11-20T00:23:44;19.37;;;15.53;;
73678;SDS011;61978;52.742;16.962;2022-11-20T00:26:13;25.25;;;17.23;;
73678;SDS011;61978;52.742;16.962;2022-11-20T00:28:41;20.68;;;16.23;;
73678;SDS011;61978;52.742;16.962;2022-11-20T00:31:11;21.50;;;17.15;;
73678;SDS011;61978;52.742;16.962;2022-11-20T00:33:40;22.25;;;16.12;;
73678;SDS011;61978;52.742;16.962;2022-11-20T00:36:11;22.80;;;17.30;;
73678;SDS011;61978;52.742;16.962;2022-11-20T00:38:41;22.40;;;18.05;;
73678;SDS011;61978;52.742;16.962;2022-11-20T00:41:11;20.85;;;17.00;;
73678;SDS011;61978;52.742;16.962;2022-11-20T00:43:41;22.25;;;18.32;;
73678;SDS011;61978;52.742;16.962;2022-11-20T00:46:09;25.90;;;19.77;;
73678;SDS011;61978;52.742;16.962;2022-11-20T00:48:41;26.62;;;20.32;;
73678;SDS011;61978;52.742;16.962;2022-11-20T00:51:08;25.17;;;19.92;;
73678;SDS011;61978;52.742;16.962;2022-11-20T00:53:38;23.70;;;18.57;;
73678;SDS011;61978;52.742;16.962;2022-11-20T00:56:07;24.57;;;19.25;;
73678;SDS011;61978;52.742;16.962;2022-11-20T00:58:37;26.93;;;19.02;;
73678;SDS011;61978;52.742;16.962;2022-11-20T01:01:12;23.52;;;18.23;;
73678;SDS011;61978;52.742;16.962;2022-11-20T01:03:41;22.75;;;17.35;;
73678;SDS011;61978;52.742;16.962;2022-11-20T01:06:17;24.07;;;17.82;;
73678;SDS011;61978;52.742;16.962;2022-11-20T01:08:43;24.00;;;18.42;;
73678;SDS011;61978;52.742;16.962;2022-11-20T01:11:11;22.65;;;17.32;;
73678;SDS011;61978;52.742;16.962;2022-11-20T01:13:42;23.00;;;18.30;;
73678;SDS011;61978;52.742;16.962;2022-11-20T01:16:12;23.90;;;18.15;;
73678;SDS011;61978;52.742;16.962;2022-11-20T01:18:43;22.37;;;17.02;;
73678;SDS011;61978;52.742;16.962;2022-11-20T01:21:14;23.35;;;18.98;;
73678;SDS011;61978;52.742;16.962;2022-11-20T01:23:42;24.15;;;17.98;;
73678;SDS011;61978;52.742;16.962;2022-11-20T01:26:12;22.22;;;17.73;;
73678;SDS011;61978;52.742;16.962;2022-11-20T01:28:42;22.87;;;17.12;;
73678;SDS011;61978;52.742;16.962;2022-11-20T01:31:14;21.93;;;17.45;;
73678;SDS011;61978;52.742;16.962;2022-11-20T01:33:43;23.32;;;17.73;;
73678;SDS011;61978;52.742;16.962;2022-11-20T01:36:12;23.02;;;18.15;;
73678;SDS011;61978;52.742;16.962;2022-11-20T01:38:41;23.20;;;17.62;;
73678;SDS011;61978;52.742;16.962;2022-11-20T01:41:10;23.07;;;17.42;;
73678;SDS011;61978;52.742;16.962;2022-11-20T01:43:40;23.77;;;19.40;;
73678;SDS011;61978;52.742;16.962;2022-11-20T01:46:17;23.25;;;17.87;;
73678;SDS011;61978;52.742;16.962;2022-11-20T01:48:44;22.15;;;17.48;;
73678;SDS011;61978;52.742;16.962;2022-11-20T01:51:20;21.65;;;18.10;;
73678;SDS011;61978;52.742;16.962;2022-11-20T01:53:45;24.43;;;18.57;;
73678;SDS011;61978;52.742;16.962;2022-11-20T01:56:13;24.00;;;17.35;;
73678;SDS011;61978;52.742;16.962;2022-11-20T01:58:44;23.12;;;17.42;;
73678;SDS011;61978;52.742;16.962;2022-11-20T02:01:12;20.85;;;17.27;;
73678;SDS011;61978;52.742;16.962;2022-11-20T02:03:40;25.17;;;19.35;;
73678;SDS011;61978;52.742;16.962;2022-11-20T02:06:10;22.40;;;17.90;;
73678;SDS011;61978;52.742;16.962;2022-11-20T02:08:38;23.80;;;17.73;;
73678;SDS011;61978;52.742;16.962;2022-11-20T02:11:06;27.77;;;19.15;;
73678;SDS011;61978;52.742;16.962;2022-11-20T02:13:34;23.27;;;18.40;;
73678;SDS011;61978;52.742;16.962;2022-11-20T02:16:15;22.98;;;18.70;;
73678;SDS011;61978;52.742;16.962;2022-11-20T02:18:44;24.63;;;18.62;;
73678;SDS011;61978;52.742;16.962;2022-11-20T02:21:19;23.65;;;19.07;;
73678;SDS011;61978;52.742;16.962;2022-11-20T02:24:00;22.45;;;18.75;;
73678;SDS011;61978;52.742;16.962;2022-11-20T02:26:29;26.07;;;19.30;;
73678;SDS011;61978;52.742;16.962;2022-11-20T02:28:58;22.75;;;17.92;;
73678;SDS011;61978;52.742;16.962;2022-11-20T02:31:28;22.77;;;17.48;;
73678;SDS011;61978;52.742;16.962;2022-11-20T02:33:58;24.57;;;18.67;;
73678;SDS011;61978;52.742;16.962;2022-11-20T02:36:26;24.37;;;19.10;;
73678;SDS011;61978;52.742;16.962;2022-11-20T02:38:56;23.05;;;18.95;;
73678;SDS011;61978;52.742;16.962;2022-11-20T02:41:30;22.93;;;17.77;;
73678;SDS011;61978;52.742;16.962;2022-11-20T02:44:02;23.83;;;18.60;;
73678;SDS011;61978;52.742;16.962;2022-11-20T02:46:31;25.10;;;18.75;;
73678;SDS011;61978;52.742;16.962;2022-11-20T02:49:01;25.23;;;18.80;;
73678;SDS011;61978;52.742;16.962;2022-11-20T02:51:29;22.15;;;17.65;;
73678;SDS011;61978;52.742;16.962;2022-11-20T02:53:58;23.98;;;18.12;;
73678;SDS011;61978;52.742;16.962;2022-11-20T02:56:25;22.70;;;17.57;;
73678;SDS011;61978;52.742;16.962;2022-11-20T02:58:52;24.90;;;18.00;;
73678;SDS011;61978;52.742;16.962;2022-11-20T03:01:19;22.00;;;17.45;;
73678;SDS011;61978;52.742;16.962;2022-11-20T03:03:47;21.75;;;18.23;;
73678;SDS011;61978;52.742;16.962;2022-11-20T03:06:15;23.38;;;18.00;;
73678;SDS011;61978;52.742;16.962;2022-11-20T03:08:42;25.85;;;17.52;;
73678;SDS011;61978;52.742;16.962;2022-11-20T03:11:11;24.45;;;18.55;;
73678;SDS011;61978;52.742;16.962;2022-11-20T03:13:39;26.10;;;18.77;;
73678;SDS011;61978;52.742;16.962;2022-11-20T03:16:06;23.55;;;18.55;;
73678;SDS011;61978;52.742;16.962;2022-11-20T03:18:36;24.15;;;18.32;;
73678;SDS011;61978;52.742;16.962;2022-11-20T03:21:04;23.15;;;19.15;;
73678;SDS011;61978;52.742;16.962;2022-11-20T03:23:32;25.00;;;18.90;;
73678;SDS011;61978;52.742;16.962;2022-11-20T03:26:13;26.07;;;19.37;;
73678;SDS011;61978;52.742;16.962;2022-11-20T03:28:36;24.80;;;20.05;;
73678;SDS011;61978;52.742;16.962;2022-11-20T03:31:09;24.40;;;18.67;;
73678;SDS011;61978;52.742;16.962;2022-11-20T03:33:38;25.37;;;18.85;;
73678;SDS011;61978;52.742;16.962;2022-11-20T03:36:08;25.92;;;19.15;;
73678;SDS011;61978;52.742;16.962;2022-11-20T03:38:38;23.32;;;18.62;;
73678;SDS011;61978;52.742;16.962;2022-11-20T03:41:15;23.50;;;18.73;;
73678;SDS011;61978;52.742;16.962;2022-11-20T03:43:40;25.90;;;19.77;;
73678;SDS011;61978;52.742;16.962;2022-11-20T03:46:08;24.72;;;19.65;;
73678;SDS011;61978;52.742;16.962;2022-11-20T03:48:37;23.87;;;19.25;;
73678;SDS011;61978;52.742;16.962;2022-11-20T03:51:08;27.07;;;19.07;;
73678;SDS011;61978;52.742;16.962;2022-11-20T03:53:40;25.20;;;19.05;;
73678;SDS011;61978;52.742;16.962;2022-11-20T03:56:10;26.12;;;19.82;;
73678;SDS011;61978;52.742;16.962;2022-11-20T03:58:39;23.20;;;19.32;;
73678;SDS011;61978;52.742;16.962;2022-11-20T04:01:07;25.30;;;21.37;;
73678;SDS011;61978;52.742;16.962;2022-11-20T04:03:37;26.80;;;20.17;;
73678;SDS011;61978;52.742;16.962;2022-11-20T04:06:06;26.87;;;20.17;;
73678;SDS011;61978;52.742;16.962;2022-11-20T04:08:36;28.47;;;21.33;;
73678;SDS011;61978;52.742;16.962;2022-11-20T04:13:42;24.65;;;19.60;;
73678;SDS011;61978;52.742;16.962;2022-11-20T04:16:22;29.63;;;21.15;;
73678;SDS011;61978;52.742;16.962;2022-11-20T04:18:51;26.02;;;21.30;;
73678;SDS011;61978;52.742;16.962;2022-11-20T04:21:20;28.07;;;22.07;;
73678;SDS011;61978;52.742;16.962;2022-11-20T04:23:47;28.07;;;21.52;;
73678;SDS011;61978;52.742;16.962;2022-11-20T04:26:15;29.18;;;21.45;;
73678;SDS011;61978;52.742;16.962;2022-11-20T04:28:42;25.90;;;20.77;;
73678;SDS011;61978;52.742;16.962;2022-11-20T04:31:10;26.60;;;20.95;;
73678;SDS011;61978;52.742;16.962;2022-11-20T04:33:39;26.42;;;20.90;;
73678;SDS011;61978;52.742;16.962;2022-11-20T04:36:10;27.02;;;20.97;;
73678;SDS011;61978;52.742;16.962;2022-11-20T04:38:38;30.17;;;22.00;;
73678;SDS011;61978;52.742;16.962;2022-11-20T04:41:07;28.83;;;22.25;;
73678;SDS011;61978;52.742;16.962;2022-11-20T04:43:36;30.45;;;22.65;;
73678;SDS011;61978;52.742;16.962;2022-11-20T04:46:04;31.65;;;23.62;;
73678;SDS011;61978;52.742;16.962;2022-11-20T04:48:31;31.23;;;24.18;;
73678;SDS011;61978;52.742;16.962;2022-11-20T04:51:03;30.48;;;23.27;;
73678;SDS011;61978;52.742;16.962;2022-11-20T04:53:30;33.20;;;24.52;;
73678;SDS011;61978;52.742;16.962;2022-11-20T04:56:02;34.50;;;26.07;;
73678;SDS011;61978;52.742;16.962;2022-11-20T04:58:31;31.73;;;25.10;;
73678;SDS011;61978;52.742;16.962;2022-11-20T05:01:10;36.35;;;25.97;;
73678;SDS011;61978;52.742;16.962;2022-11-20T05:03:36;33.30;;;24.27;;
73678;SDS011;61978;52.742;16.962;2022-11-20T05:06:04;36.33;;;24.18;;
73678;SDS011;61978;52.742;16.962;2022-11-20T05:08:32;35.80;;;25.40;;
73678;SDS011;61978;52.742;16.962;2022-11-20T05:11:08;32.10;;;23.85;;
73678;SDS011;61978;52.742;16.962;2022-11-20T05:13:37;36.53;;;25.20;;
73678;SDS011;61978;52.742;16.962;2022-11-20T05:16:06;33.98;;;24.35;;
73678;SDS011;61978;52.742;16.962;2022-11-20T05:18:36;33.10;;;22.75;;
73678;SDS011;61978;52.742;16.962;2022-11-20T05:21:05;32.28;;;23.95;;
73678;SDS011;61978;52.742;16.962;2022-11-20T05:23:34;32.70;;;23.12;;
73678;SDS011;61978;52.742;16.962;2022-11-20T05:26:01;31.35;;;23.38;;
73678;SDS011;61978;52.742;16.962;2022-11-20T05:28:32;32.25;;;23.85;;
73678;SDS011;61978;52.742;16.962;2022-11-20T05:31:07;31.55;;;23.15;;
73678;SDS011;61978;52.742;16.962;2022-11-20T05:33:38;29.90;;;23.00;;
73678;SDS011;61978;52.742;16.962;2022-11-20T05:36:07;34.10;;;23.85;;
73678;SDS011;61978;52.742;16.962;2022-11-20T05:38:36;35.73;;;23.77;;
73678;SDS011;61978;52.742;16.962;2022-11-20T05:41:12;34.63;;;23.77;;
73678;SDS011;61978;52.742;16.962;2022-11-20T05:43:42;34.60;;;23.60;;
73678;SDS011;61978;52.742;16.962;2022-11-20T05:46:11;37.03;;;25.40;;
73678;SDS011;61978;52.742;16.962;2022-11-20T05:48:42;38.92;;;25.80;;
73678;SDS011;61978;52.742;16.962;2022-11-20T05:51:12;36.15;;;24.43;;
73678;SDS011;61978;52.742;16.962;2022-11-20T05:53:40;32.42;;;23.57;;
73678;SDS011;61978;52.742;16.962;2022-11-20T05:56:09;35.80;;;24.77;;
73678;SDS011;61978;52.742;16.962;2022-11-20T05:58:38;37.93;;;26.23;;
73678;SDS011;61978;52.742;16.962;2022-11-20T06:03:42;40.55;;;25.45;;
73678;SDS011;61978;52.742;16.962;2022-11-20T06:06:13;38.92;;;25.68;;
73678;SDS011;61978;52.742;16.962;2022-11-20T06:08:41;37.63;;;25.72;;
73678;SDS011;61978;52.742;16.962;2022-11-20T06:11:09;36.70;;;25.62;;
73678;SDS011;61978;52.742;16.962;2022-11-20T06:13:38;45.67;;;30.90;;
73678;SDS011;61978;52.742;16.962;2022-11-20T06:16:07;98.07;;;64.82;;
73678;SDS011;61978;52.742;16.962;2022-11-20T06:18:34;54.73;;;39.00;;
73678;SDS011;61978;52.742;16.962;2022-11-20T06:21:14;56.75;;;40.45;;
73678;SDS011;61978;52.742;16.962;2022-11-20T06:23:38;47.98;;;34.00;;
73678;SDS011;61978;52.742;16.962;2022-11-20T06:26:10;45.92;;;34.18;;
73678;SDS011;61978;52.742;16.962;2022-11-20T06:28:40;46.73;;;36.53;;
73678;SDS011;61978;52.742;16.962;2022-11-20T06:31:07;53.23;;;41.18;;
73678;SDS011;61978;52.742;16.962;2022-11-20T06:33:36;47.58;;;34.95;;
73678;SDS011;61978;52.742;16.962;2022-11-20T06:36:03;63.30;;;45.23;;
73678;SDS011;61978;52.742;16.962;2022-11-20T06:38:31;58.40;;;39.83;;
73678;SDS011;61978;52.742;16.962;2022-11-20T06:40:59;60.90;;;41.18;;
73678;SDS011;61978;52.742;16.962;2022-11-20T06:43:28;47.67;;;31.77;;
73678;SDS011;61978;52.742;16.962;2022-11-20T06:45:57;53.38;;;38.25;;
73678;SDS011;61978;52.742;16.962;2022-11-20T06:48:27;59.55;;;43.45;;
73678;SDS011;61978;52.742;16.962;2022-11-20T06:50:55;53.02;;;36.88;;
73678;SDS011;61978;52.742;16.962;2022-11-20T06:53:24;46.58;;;29.15;;
73678;SDS011;61978;52.742;16.962;2022-11-20T06:55:55;180.60;;;86.75;;
73678;SDS011;61978;52.742;16.962;2022-11-20T06:58:25;280.00;;;136.20;;
73678;SDS011;61978;52.742;16.962;2022-11-20T07:00:58;55.40;;;34.20;;
73678;SDS011;61978;52.742;16.962;2022-11-20T07:03:26;52.03;;;38.60;;
73678;SDS011;61978;52.742;16.962;2022-11-20T07:05:59;60.25;;;39.80;;
73678;SDS011;61978;52.742;16.962;2022-11-20T07:08:24;85.45;;;50.35;;
73678;SDS011;61978;52.742;16.962;2022-11-20T07:10:52;65.67;;;38.20;;
73678;SDS011;61978;52.742;16.962;2022-11-20T07:13:21;140.88;;;75.92;;
73678;SDS011;61978;52.742;16.962;2022-11-20T07:15:47;162.70;;;86.42;;
73678;SDS011;61978;52.742;16.962;2022-11-20T07:18:14;157.27;;;80.55;;
73678;SDS011;61978;52.742;16.962;2022-11-20T07:20:42;138.92;;;72.80;;
73678;SDS011;61978;52.742;16.962;2022-11-20T07:23:09;70.30;;;47.58;;
73678;SDS011;61978;52.742;16.962;2022-11-20T07:25:36;143.28;;;79.50;;
73678;SDS011;61978;52.742;16.962;2022-11-20T07:28:02;109.67;;;63.13;;
73678;SDS011;61978;52.742;16.962;2022-11-20T07:30:30;167.20;;;66.02;;
73678;SDS011;61978;52.742;16.962;2022-11-20T07:32:58;85.85;;;45.58;;
73678;SDS011;61978;52.742;16.962;2022-11-20T07:35:26;61.68;;;39.38;;
73678;SDS011;61978;52.742;16.962;2022-11-20T07:37:53;67.47;;;44.35;;
73678;SDS011;61978;52.742;16.962;2022-11-20T07:40:20;69.27;;;43.20;;
73678;SDS011;61978;52.742;16.962;2022-11-20T07:42:50;45.45;;;31.65;;
73678;SDS011;61978;52.742;16.962;2022-11-20T07:45:19;44.98;;;32.53;;
73678;SDS011;61978;52.742;16.962;2022-11-20T07:47:47;46.53;;;33.70;;
73678;SDS011;61978;52.742;16.962;2022-11-20T07:50:15;48.40;;;35.05;;
73678;SDS011;61978;52.742;16.962;2022-11-20T07:52:43;40.78;;;29.07;;
73678;SDS011;61978;52.742;16.962;2022-11-20T07:55:11;43.13;;;30.25;;
73678;SDS011;61978;52.742;16.962;2022-11-20T07:57:38;34.65;;;26.07;;
73678;SDS011;61978;52.742;16.962;2022-11-20T08:00:07;39.85;;;30.85;;
73678;SDS011;61978;52.742;16.962;2022-11-20T08:02:39;39.03;;;29.00;;
73678;SDS011;61978;52.742;16.962;2022-11-20T08:05:08;41.77;;;32.55;;
73678;SDS011;61978;52.742;16.962;2022-11-20T08:07:36;37.15;;;26.40;;
73678;SDS011;61978;52.742;16.962;2022-11-20T08:10:05;29.75;;;15.38;;
73678;SDS011;61978;52.742;16.962;2022-11-20T08:12:33;29.72;;;15.58;;
73678;SDS011;61978;52.742;16.962;2022-11-20T08:15:19;33.25;;;20.02;;
73678;SDS011;61978;52.742;16.962;2022-11-20T08:17:46;33.30;;;24.23;;
73678;SDS011;61978;52.742;16.962;2022-11-20T08:20:14;32.67;;;19.82;;
73678;SDS011;61978;52.742;16.962;2022-11-20T08:22:40;31.60;;;19.55;;
73678;SDS011;61978;52.742;16.962;2022-11-20T08:25:08;31.62;;;15.40;;
73678;SDS011;61978;52.742;16.962;2022-11-20T08:27:36;27.37;;;16.65;;
73678;SDS011;61978;52.742;16.962;2022-11-20T08:30:03;28.95;;;20.57;;
73678;SDS011;61978;52.742;16.962;2022-11-20T08:32:30;30.82;;;19.42;;
73678;SDS011;61978;52.742;16.962;2022-11-20T08:34:57;30.43;;;17.73;;
73678;SDS011;61978;52.742;16.962;2022-11-20T08:37:24;40.45;;;24.18;;
73678;SDS011;61978;52.742;16.962;2022-11-20T08:39:52;25.43;;;12.33;;
73678;SDS011;61978;52.742;16.962;2022-11-20T08:42:20;40.28;;;19.35;;
73678;SDS011;61978;52.742;16.962;2022-11-20T08:44:47;35.20;;;17.12;;
73678;SDS011;61978;52.742;16.962;2022-11-20T08:47:16;41.65;;;19.02;;
73678;SDS011;61978;52.742;16.962;2022-11-20T08:49:45;38.42;;;17.12;;
73678;SDS011;61978;52.742;16.962;2022-11-20T08:52:12;31.33;;;23.30;;
73678;SDS011;61978;52.742;16.962;2022-11-20T08:54:39;29.63;;;21.60;;
73678;SDS011;61978;52.742;16.962;2022-11-20T08:57:08;28.07;;;21.97;;
73678;SDS011;61978;52.742;16.962;2022-11-20T08:59:35;29.37;;;22.40;;
73678;SDS011;61978;52.742;16.962;2022-11-20T09:02:02;28.75;;;22.15;;
73678;SDS011;61978;52.742;16.962;2022-11-20T09:04:30;28.02;;;20.80;;
73678;SDS011;61978;52.742;16.962;2022-11-20T09:06:59;27.58;;;21.87;;
73678;SDS011;61978;52.742;16.962;2022-11-20T09:09:29;30.00;;;22.98;;
73678;SDS011;61978;52.742;16.962;2022-11-20T09:11:57;30.95;;;22.10;;
73678;SDS011;61978;52.742;16.962;2022-11-20T09:14:25;28.87;;;21.80;;
73678;SDS011;61978;52.742;16.962;2022-11-20T09:16:54;30.57;;;22.32;;
73678;SDS011;61978;52.742;16.962;2022-11-20T09:19:23;31.90;;;23.42;;
73678;SDS011;61978;52.742;16.962;2022-11-20T09:21:50;32.28;;;23.15;;
73678;SDS011;61978;52.742;16.962;2022-11-20T09:24:18;32.83;;;23.32;;
73678;SDS011;61978;52.742;16.962;2022-11-20T09:26:46;32.15;;;23.02;;
73678;SDS011;61978;52.742;16.962;2022-11-20T09:29:13;29.92;;;20.10;;
73678;SDS011;61978;52.742;16.962;2022-11-20T09:31:39;29.18;;;18.90;;
73678;SDS011;61978;52.742;16.962;2022-11-20T09:34:07;32.38;;;19.77;;
73678;SDS011;61978;52.742;16.962;2022-11-20T09:36:35;31.27;;;23.40;;
73678;SDS011;61978;52.742;16.962;2022-11-20T09:39:03;30.92;;;22.98;;
73678;SDS011;61978;52.742;16.962;2022-11-20T09:41:36;36.42;;;24.32;;
73678;SDS011;61978;52.742;16.962;2022-11-20T09:47:11;30.97;;;24.47;;
73678;SDS011;61978;52.742;16.962;2022-11-20T09:52:44;62.48;;;22.35;;
73678;SDS011;61978;52.742;16.962;2022-11-20T09:55:22;45.52;;;17.57;;
73678;SDS011;61978;52.742;16.962;2022-11-20T09:57:51;56.58;;;21.75;;
73678;SDS011;61978;52.742;16.962;2022-11-20T10:00:19;45.45;;;17.57;;
73678;SDS011;61978;52.742;16.962;2022-11-20T10:05:28;36.23;;;18.40;;
73678;SDS011;61978;52.742;16.962;2022-11-20T10:10:46;38.38;;;27.80;;
73678;SDS011;61978;52.742;16.962;2022-11-20T10:19:07;37.98;;;24.60;;
73678;SDS011;61978;52.742;16.962;2022-11-20T10:30:18;32.70;;;24.05;;
73678;SDS011;61978;52.742;16.962;2022-11-20T10:32:47;31.30;;;23.07;;
73678;SDS011;61978;52.742;16.962;2022-11-20T10:38:00;31.77;;;22.58;;
73678;SDS011;61978;52.742;16.962;2022-11-20T10:43:06;35.58;;;24.18;;
73678;SDS011;61978;52.742;16.962;2022-11-20T10:45:57;32.38;;;21.60;;
73678;SDS011;61978;52.742;16.962;2022-11-20T10:48:26;34.13;;;23.15;;
73678;SDS011;61978;52.742;16.962;2022-11-20T10:51:15;32.67;;;22.37;;
73678;SDS011;61978;52.742;16.962;2022-11-20T10:56:30;42.00;;;29.15;;
73678;SDS011;61978;52.742;16.962;2022-11-20T11:02:19;56.33;;;39.78;;
73678;SDS011;61978;52.742;16.962;2022-11-20T11:04:55;55.30;;;36.75;;
73678;SDS011;61978;52.742;16.962;2022-11-20T11:07:24;35.00;;;23.60;;
73678;SDS011;61978;52.742;16.962;2022-11-20T11:10:01;33.50;;;23.80;;
73678;SDS011;61978;52.742;16.962;2022-11-20T11:12:29;65.42;;;37.83;;
73678;SDS011;61978;52.742;16.962;2022-11-20T11:14:56;54.58;;;31.00;;
73678;SDS011;61978;52.742;16.962;2022-11-20T11:17:28;79.20;;;40.85;;
73678;SDS011;61978;52.742;16.962;2022-11-20T11:20:05;79.22;;;44.25;;
73678;SDS011;61978;52.742;16.962;2022-11-20T11:22:43;49.08;;;32.48;;
73678;SDS011;61978;52.742;16.962;2022-11-20T11:25:19;44.60;;;30.33;;
73678;SDS011;61978;52.742;16.962;2022-11-20T11:27:48;40.63;;;27.50;;
73678;SDS011;61978;52.742;16.962;2022-11-20T11:30:18;45.85;;;33.13;;
73678;SDS011;61978;52.742;16.962;2022-11-20T11:32:47;34.25;;;25.77;;
73678;SDS011;61978;52.742;16.962;2022-11-20T11:35:24;32.85;;;22.32;;
73678;SDS011;61978;52.742;16.962;2022-11-20T11:37:55;39.50;;;24.72;;
73678;SDS011;61978;52.742;16.962;2022-11-20T11:40:31;31.40;;;22.70;;
73678;SDS011;61978;52.742;16.962;2022-11-20T11:43:01;28.05;;;20.95;;
73678;SDS011;61978;52.742;16.962;2022-11-20T11:45:31;30.80;;;21.48;;
73678;SDS011;61978;52.742;16.962;2022-11-20T11:48:00;32.03;;;22.55;;
73678;SDS011;61978;52.742;16.962;2022-11-20T11:50:29;32.60;;;22.30;;
73678;SDS011;61978;52.742;16.962;2022-11-20T11:55:47;31.00;;;22.80;;
73678;SDS011;61978;52.742;16.962;2022-11-20T11:58:28;34.45;;;22.55;;
73678;SDS011;61978;52.742;16.962;2022-11-20T12:06:48;33.60;;;23.32;;
73678;SDS011;61978;52.742;16.962;2022-11-20T12:09:21;35.63;;;25.75;;
73678;SDS011;61978;52.742;16.962;2022-11-20T12:11:53;35.33;;;24.95;;
73678;SDS011;61978;52.742;16.962;2022-11-20T12:14:25;32.50;;;25.65;;
73678;SDS011;61978;52.742;16.962;2022-11-20T12:17:08;33.38;;;24.98;;
73678;SDS011;61978;52.742;16.962;2022-11-20T12:19:40;36.70;;;25.70;;
73678;SDS011;61978;52.742;16.962;2022-11-20T12:25:05;34.25;;;24.50;;
73678;SDS011;61978;52.742;16.962;2022-11-20T12:30:23;35.78;;;25.55;;
73678;SDS011;61978;52.742;16.962;2022-11-20T12:43:30;50.25;;;34.05;;
73678;SDS011;61978;52.742;16.962;2022-11-20T12:51:37;58.63;;;35.20;;
73678;SDS011;61978;52.742;16.962;2022-11-20T12:54:20;42.30;;;29.25;;
73678;SDS011;61978;52.742;16.962;2022-11-20T12:56:58;88.20;;;47.43;;
73678;SDS011;61978;52.742;16.962;2022-11-20T13:05:18;41.80;;;28.32;;
73678;SDS011;61978;52.742;16.962;2022-11-20T13:07:47;58.60;;;36.13;;
73678;SDS011;61978;52.742;16.962;2022-11-20T13:10:26;84.50;;;43.48;;
73678;SDS011;61978;52.742;16.962;2022-11-20T13:12:56;79.55;;;39.60;;
73678;SDS011;61978;52.742;16.962;2022-11-20T13:18:14;38.33;;;23.52;;
73678;SDS011;61978;52.742;16.962;2022-11-20T13:20:42;37.85;;;23.80;;
73678;SDS011;61978;52.742;16.962;2022-11-20T13:23:10;36.25;;;25.50;;
73678;SDS011;61978;52.742;16.962;2022-11-20T13:25:38;39.13;;;26.68;;
73678;SDS011;61978;52.742;16.962;2022-11-20T13:30:57;40.28;;;27.77;;
73678;SDS011;61978;52.742;16.962;2022-11-20T13:36:02;35.20;;;26.93;;
73678;SDS011;61978;52.742;16.962;2022-11-20T13:38:44;39.35;;;27.27;;
73678;SDS011;61978;52.742;16.962;2022-11-20T13:41:28;38.85;;;27.37;;
73678;SDS011;61978;52.742;16.962;2022-11-20T13:44:12;43.17;;;28.80;;
73678;SDS011;61978;52.742;16.962;2022-11-20T13:46:44;45.05;;;29.98;;
73678;SDS011;61978;52.742;16.962;2022-11-20T13:49:25;41.37;;;29.42;;
73678;SDS011;61978;52.742;16.962;2022-11-20T13:52:04;42.73;;;28.43;;
73678;SDS011;61978;52.742;16.962;2022-11-20T13:54:39;40.92;;;27.82;;
73678;SDS011;61978;52.742;16.962;2022-11-20T13:59:57;35.95;;;25.60;;
73678;SDS011;61978;52.742;16.962;2022-11-20T14:02:23;38.73;;;25.43;;
73678;SDS011;61978;52.742;16.962;2022-11-20T14:04:54;34.88;;;25.00;;
73678;SDS011;61978;52.742;16.962;2022-11-20T14:07:24;32.35;;;21.17;;
73678;SDS011;61978;52.742;16.962;2022-11-20T14:09:54;36.30;;;25.92;;
73678;SDS011;61978;52.742;16.962;2022-11-20T14:12:27;35.85;;;26.00;;
73678;SDS011;61978;52.742;16.962;2022-11-20T14:14:56;33.88;;;25.15;;
73678;SDS011;61978;52.742;16.962;2022-11-20T14:17:34;37.60;;;27.22;;
73678;SDS011;61978;52.742;16.962;2022-11-20T14:20:03;36.20;;;26.35;;
73678;SDS011;61978;52.742;16.962;2022-11-20T14:22:32;37.00;;;26.20;;
73678;SDS011;61978;52.742;16.962;2022-11-20T14:27:43;34.03;;;26.20;;
73678;SDS011;61978;52.742;16.962;2022-11-20T14:30:22;34.92;;;27.27;;
73678;SDS011;61978;52.742;16.962;2022-11-20T14:32:51;37.17;;;26.65;;
73678;SDS011;61978;52.742;16.962;2022-11-20T14:35:25;36.42;;;25.77;;
73678;SDS011;61978;52.742;16.962;2022-11-20T14:37:53;38.60;;;26.77;;
73678;SDS011;61978;52.742;16.962;2022-11-20T14:40:22;39.33;;;26.87;;
73678;SDS011;61978;52.742;16.962;2022-11-20T14:42:51;36.48;;;26.25;;
73678;SDS011;61978;52.742;16.962;2022-11-20T14:45:18;37.65;;;26.93;;
73678;SDS011;61978;52.742;16.962;2022-11-20T14:47:47;34.25;;;26.27;;
73678;SDS011;61978;52.742;16.962;2022-11-20T14:50:25;39.35;;;26.23;;
73678;SDS011;61978;52.742;16.962;2022-11-20T14:52:57;38.73;;;25.27;;
73678;SDS011;61978;52.742;16.962;2022-11-20T14:55:34;37.60;;;26.40;;
73678;SDS011;61978;52.742;16.962;2022-11-20T14:58:21;36.83;;;28.65;;
73678;SDS011;61978;52.742;16.962;2022-11-20T15:01:00;39.25;;;27.93;;
73678;SDS011;61978;52.742;16.962;2022-11-20T15:03:33;44.10;;;26.77;;
73678;SDS011;61978;52.742;16.962;2022-11-20T15:06:05;41.33;;;27.22;;
73678;SDS011;61978;52.742;16.962;2022-11-20T15:08:34;43.85;;;27.30;;
73678;SDS011;61978;52.742;16.962;2022-11-20T15:11:16;43.25;;;28.35;;
73678;SDS011;61978;52.742;16.962;2022-11-20T15:13:38;44.10;;;28.50;;
73678;SDS011;61978;52.742;16.962;2022-11-20T15:16:24;42.80;;;27.52;;
73678;SDS011;61978;52.742;16.962;2022-11-20T15:18:42;45.12;;;29.02;;
73678;SDS011;61978;52.742;16.962;2022-11-20T15:21:11;48.70;;;30.45;;
73678;SDS011;61978;52.742;16.962;2022-11-20T15:23:41;43.60;;;28.98;;
73678;SDS011;61978;52.742;16.962;2022-11-20T15:26:09;44.45;;;29.32;;
73678;SDS011;61978;52.742;16.962;2022-11-20T15:28:42;45.73;;;28.27;;
73678;SDS011;61978;52.742;16.962;2022-11-20T15:31:13;44.88;;;28.87;;
73678;SDS011;61978;52.742;16.962;2022-11-20T15:33:42;51.58;;;32.13;;
73678;SDS011;61978;52.742;16.962;2022-11-20T15:36:09;45.45;;;28.02;;
73678;SDS011;61978;52.742;16.962;2022-11-20T15:38:36;46.70;;;30.65;;
73678;SDS011;61978;52.742;16.962;2022-11-20T15:41:03;42.17;;;30.80;;
73678;SDS011;61978;52.742;16.962;2022-11-20T15:43:30;42.83;;;30.02;;
73678;SDS011;61978;52.742;16.962;2022-11-20T15:46:06;47.85;;;32.25;;
73678;SDS011;61978;52.742;16.962;2022-11-20T15:48:38;45.75;;;31.82;;
73678;SDS011;61978;52.742;16.962;2022-11-20T15:56:11;51.10;;;33.92;;
73678;SDS011;61978;52.742;16.962;2022-11-20T15:58:39;45.45;;;32.85;;
73678;SDS011;61978;52.742;16.962;2022-11-20T16:01:14;50.70;;;34.95;;
73678;SDS011;61978;52.742;16.962;2022-11-20T16:03:39;51.83;;;35.98;;